Flight Track Log - Related Links

Times and Time Zones

All times are in EDT time to prevent confusion due to time zone crossing. See the N164UP flight status page for this flight to view local times or setup timezone preferences in your user account.

Time Position Orientation Groundspeed Altitude Reporting Facility
EDT Latitude Longitude Course Direction KTS MPH feet Rate Location/Type
Sat 04:47:22 AM 38.1510 -85.7400 164° South 165 190 1,700  Level FlightAware ADS-B
Sat 04:47:47 AM 38.1290 -85.7410 182° South 198 228 2,600 2,073 Climbing FlightAware ADS-B
Sat 04:48:17 AM 38.0980 -85.7420 181° South 244 281 3,600 2,700 Climbing FlightAware ADS-B
Sat 04:48:47 AM 38.0630 -85.7340 170° South 273 314 5,300 3,600 Climbing FlightAware ADS-B
Sat 04:49:12 AM 38.0380 -85.7100 143° Southeast 283 326 6,900 3,600 Climbing FlightAware ADS-B
Sat 04:49:42 AM 38.0080 -85.6790 141° Southeast 294 338 8,600 2,800 Climbing FlightAware ADS-B
Sat 04:50:12 AM 37.9740 -85.6430 140° Southeast 318 366 9,700 1,457 Climbing FlightAware ADS-B
Sat 04:50:52 AM 37.9240 -85.5900 140° Southeast 384 442 10,300 1,575 Climbing FlightAware ADS-B
Sat 04:51:32 AM 37.8680 -85.5290 139° Southeast 416 479 11,800 2,471 Climbing FlightAware ADS-B
Sat 04:52:17 AM 37.8000 -85.4540 139° Southeast 441 507 13,800 2,612 Climbing FlightAware ADS-B
Sat 04:52:57 AM 37.7360 -85.3840 139° Southeast 458 527 15,500 2,753 Climbing FlightAware ADS-B
Sat 04:53:42 AM 37.6650 -85.3040 138° Southeast 466 536 17,700 2,894 Climbing FlightAware ADS-B
Sat 04:54:22 AM 37.6020 -85.2270 136° Southeast 470 541 19,600 2,612 Climbing FlightAware ADS-B
Sat 04:55:07 AM 37.5290 -85.1390 136° Southeast 479 551 21,400 2,259 Climbing FlightAware ADS-B
Sat 04:55:47 AM 37.4650 -85.0610 136° Southeast 487 560 22,800 2,167 Climbing FlightAware ADS-B
Sat 04:56:19 AM 37.4099 -84.9967 137° Southeast 492 566 24,000 2,060 Climbing FlightAware ADS-B
Sat 04:56:54 AM 37.3532 -84.9294 137° Southeast 497 572 25,100 1,846 Climbing FlightAware ADS-B
Sat 04:57:24 AM 37.3012 -84.8673 136° Southeast 503 579 26,000 1,574 Climbing FlightAware ADS-B
Sat 04:57:55 AM 37.2491 -84.8047 136° Southeast 510 587 26,700 1,355 Climbing FlightAware ADS-B
Sat 04:58:26 AM 37.1958 -84.7413 137° Southeast 516 594 27,400 1,770 Climbing FlightAware ADS-B
Sat 04:58:56 AM 37.1435 -84.6797 137° Southeast 512 589 28,500 2,595 Climbing FlightAware ADS-B
Sat 04:59:40 AM 37.0682 -84.5920 137° Southeast 496 571 30,600 2,640 Climbing FlightAware ADS-B
Sat 05:00:11 AM 37.0182 -84.5322 136° Southeast 482 555 31,800 2,066 Climbing FlightAware ADS-B
Sat 05:00:41 AM 36.9688 -84.4752 137° Southeast 478 550 32,700 1,180 Climbing FlightAware ADS-B
Sat 05:01:12 AM 36.9187 -84.4167 137° Southeast 475 547 33,000 281 Climbing FlightAware ADS-B
Sat 05:01:45 AM 36.8669 -84.3568 137° Southeast 476 548 33,000  Level FlightAware ADS-B
Sat 05:02:15 AM 36.8185 -84.3006 137° Southeast 478 550 33,000  Level FlightAware ADS-B
Sat 05:02:46 AM 36.7681 -84.2404 136° Southeast 478 550 33,000  Level FlightAware ADS-B
Sat 05:03:16 AM 36.7184 -84.1839 138° Southeast 478 550 33,000  Level FlightAware ADS-B
Sat 05:03:47 AM 36.6694 -84.1275 137° Southeast 479 551 33,000  Level FlightAware ADS-B
Sat 05:04:08 AM 36.6353 -84.0843 135° Southeast 487 560 33,000  Level FlightAware ADS-B
Sat 05:04:38 AM 36.5896 -84.0223 133° Southeast 483 556 33,000  Level FlightAware ADS-B
Sat 05:05:09 AM 36.5444 -83.9580 131° Southeast 484 557 33,000  Level FlightAware ADS-B
Sat 05:05:39 AM 36.4998 -83.8960 132° Southeast 479 551 33,000  Level FlightAware ADS-B
Sat 05:06:09 AM 36.4553 -83.8348 132° Southeast 477 549 33,000  Level FlightAware ADS-B
Sat 05:06:39 AM 36.4105 -83.7737 132° Southeast 476 548 33,000  Level FlightAware ADS-B
Sat 05:07:10 AM 36.3658 -83.7129 132° Southeast 475 547 33,000  Level FlightAware ADS-B
Sat 05:07:40 AM 36.3213 -83.6500 131° Southeast 477 549 33,000  Level FlightAware ADS-B
Sat 05:08:10 AM 36.2760 -83.5889 133° Southeast 477 549 33,000  Level FlightAware ADS-B
Sat 05:08:42 AM 36.2292 -83.5241 132° Southeast 478 550 33,000  Level FlightAware ADS-B
Sat 05:09:13 AM 36.1830 -83.4611 132° Southeast 480 552 33,000  Level FlightAware ADS-B
Sat 05:09:44 AM 36.1375 -83.3998 133° Southeast 480 552 33,000  Level FlightAware ADS-B
Sat 05:10:14 AM 36.0922 -83.3364 131° Southeast 481 554 33,000  Level FlightAware ADS-B
Sat 05:10:45 AM 36.0454 -83.2733 133° Southeast 482 555 33,000  Level FlightAware ADS-B
Sat 05:11:15 AM 35.9999 -83.2123 133° Southeast 481 554 33,000  Level FlightAware ADS-B
Sat 05:11:47 AM 35.9532 -83.1493 132° Southeast 483 556 33,000  Level FlightAware ADS-B
Sat 05:12:21 AM 35.9008 -83.0779 132° Southeast 486 559 33,000  Level FlightAware ADS-B
Sat 05:12:52 AM 35.8548 -83.0146 132° Southeast 481 554 33,000  Level FlightAware ADS-B
Sat 05:13:25 AM 35.8044 -82.9478 133° Southeast 482 555 33,000  Level FlightAware ADS-B
Sat 05:13:56 AM 35.7588 -82.8872 133° Southeast 482 555 33,000  Level FlightAware ADS-B
Sat 05:14:23 AM 35.7173 -82.8305 132° Southeast 481 554 33,000  Level FlightAware ADS-B
Sat 05:14:55 AM 35.6700 -82.7682 133° Southeast 480 552 33,000  Level FlightAware ADS-B
Sat 05:15:25 AM 35.6241 -82.7058 132° Southeast 481 554 33,000  Level FlightAware ADS-B
Sat 05:15:56 AM 35.5779 -82.6437 132° Southeast 476 548 33,000  Level FlightAware ADS-B
Sat 05:16:26 AM 35.5333 -82.5842 133° Southeast 472 543 33,000  Level FlightAware ADS-B
Sat 05:16:59 AM 35.4849 -82.5196 133° Southeast 471 542 33,000  Level FlightAware ADS-B
Sat 05:17:29 AM 35.4401 -82.4607 133° Southeast 469 540 33,000  Level FlightAware ADS-B
Sat 05:17:59 AM 35.3952 -82.4020 133° Southeast 469 540 33,000  Level FlightAware ADS-B
Sat 05:18:30 AM 35.3498 -82.3413 133° Southeast 473 544 33,000  Level FlightAware ADS-B
Sat 05:19:03 AM 35.3011 -82.2785 134° Southeast 474 545 33,000  Level FlightAware ADS-B
Sat 05:19:34 AM 35.2539 -82.2154 132° Southeast 474 545 33,000  Level FlightAware ADS-B
Sat 05:20:06 AM 35.2072 -82.1545 133° Southeast 474 545 33,000  Level FlightAware ADS-B
Sat 05:20:37 AM 35.1598 -82.0919 133° Southeast 473 544 33,000  Level FlightAware ADS-B
Sat 05:21:10 AM 35.1108 -82.0272 133° Southeast 475 547 33,000  Level FlightAware ADS-B
Sat 05:21:32 AM 35.0781 -81.9863 134° Southeast 472 543 33,000  Level FlightAware ADS-B
Sat 05:21:59 AM 35.0343 -81.9368 137° Southeast 460 529 33,000  Level FlightAware ADS-B
Sat 05:22:30 AM 34.9819 -81.8895 144° Southeast 448 516 33,000 -1,377 Level FlightAware ADS-B
Sat 05:23:00 AM 34.9300 -81.8500 148° Southeast 438 504 31,600 -3,246 Descending FlightAware ADS-B
Sat 05:23:31 AM 34.8778 -81.8109 148° Southeast 439 505 29,700 -3,484 Descending FlightAware ADS-B
Sat 05:24:02 AM 34.8310 -81.7750 148° Southeast 441 507 28,000 -3,887 Descending FlightAware ADS-B
Sat 05:24:42 AM 34.7600 -81.7230 149° Southeast 443 510 25,100 -3,916 Descending FlightAware ADS-B
Sat 05:25:37 AM 34.7140 -81.6900 149° Southeast 441 507 21,800 -2,200 Descending FlightAware ADS-B
Sat 05:26:12 AM 34.6570 -81.6460 148° Southeast 441 507 21,800 1,582 Level FlightAware ADS-B
Sat 05:27:27 AM 34.7480 -81.7140 328° Northwest 442 509 24,700 -3,514 Climbing FlightAware ADS-B
Sat 05:28:32 AM 34.3780 -81.4400 149° Southeast 404 465 13,600 -6,982 Descending FlightAware ADS-B
Sat 05:29:17 AM 34.3050 -81.3870 149° Southeast 391 450 11,900 -1,074 Descending FlightAware ADS-B
Sat 05:30:07 AM 34.2400 -81.3380 148° Southeast 391 450 11,900 -2,182 Level FlightAware ADS-B
Sat 05:31:07 AM 34.1525 -81.3492 148° Southeast 322 371 7,900 -3,950 Descending Jacksonville Center
Sat 05:32:07 AM 34.0831 -81.3106 155° Southeast 296 341 4,000 -2,900 Descending Jacksonville Center
Sat 05:33:07 AM 34.0158 -81.2767 157° South 275 316 2,100 -1,000 Descending Jacksonville Center
Sat 05:34:07 AM 33.9717 -81.2422 147° Southeast 232 267 2,000 -250 Descending Jacksonville Center
Sat 05:35:07 AM 33.9419 -81.2078 136° Southeast 191 220 1,600 -400 Descending Jacksonville Center

Login

Don't have an account? Register now (free) for customized features, flight alerts, and more!